createdAt,value
2022-10-28T00:00:30.228Z,7.22
2022-10-28T00:02:59.446Z,9.90
2022-10-28T00:05:26.024Z,7.63
2022-10-28T00:07:52.521Z,5.75
2022-10-28T00:10:19.087Z,7.72
2022-10-28T00:12:45.524Z,9.15
2022-10-28T00:15:11.957Z,11.50
2022-10-28T00:17:38.399Z,10.98
2022-10-28T00:20:05.290Z,10.43
2022-10-28T00:22:31.637Z,12.00
2022-10-28T00:24:57.980Z,12.68
2022-10-28T00:27:24.438Z,9.50
2022-10-28T00:29:50.784Z,7.15
2022-10-28T00:32:17.164Z,17.00
2022-10-28T00:34:43.546Z,10.10
2022-10-28T00:37:09.964Z,9.80
2022-10-28T00:39:36.518Z,9.25
2022-10-28T00:42:07.079Z,10.07
2022-10-28T00:44:39.608Z,9.27
2022-10-28T00:47:14.502Z,12.05
2022-10-28T00:49:42.717Z,12.40
2022-10-28T00:52:15.432Z,8.93
2022-10-28T00:54:42.647Z,8.70
2022-10-28T00:57:14.956Z,8.10
2022-10-28T00:59:45.513Z,12.05
2022-10-28T01:02:12.229Z,10.55
2022-10-28T01:04:39.232Z,9.40
2022-10-28T01:07:06.398Z,11.38
2022-10-28T01:09:32.813Z,7.60
2022-10-28T01:12:08.448Z,12.88
2022-10-28T01:15:00.602Z,12.40
2022-10-28T01:17:36.262Z,8.93
2022-10-28T01:20:27.247Z,11.32
2022-10-28T01:23:08.362Z,8.07
2022-10-28T01:26:20.975Z,10.80
2022-10-28T01:29:03.051Z,8.80
2022-10-28T01:31:29.407Z,10.60
2022-10-28T01:34:19.587Z,10.82
2022-10-28T01:37:00.963Z,10.82
2022-10-28T01:39:41.644Z,8.80
2022-10-28T01:42:13.623Z,14.70
2022-10-28T01:45:10.111Z,13.75
2022-10-28T01:47:46.817Z,8.95
2022-10-28T01:50:37.659Z,10.95
2022-10-28T01:53:09.176Z,18.10
2022-10-28T01:55:39.192Z,8.27
2022-10-28T01:58:09.054Z,12.20
2022-10-28T02:00:37.512Z,16.08
2022-10-28T02:03:08.504Z,8.70
2022-10-28T02:05:38.354Z,8.73
2022-10-28T02:08:45.736Z,7.57
2022-10-28T02:11:34.704Z,10.43
2022-10-28T02:14:17.826Z,15.20
2022-10-28T02:16:59.008Z,9.38
2022-10-28T02:19:30.904Z,10.43
2022-10-28T02:22:12.575Z,10.05
2022-10-28T02:25:02.757Z,11.85
2022-10-28T02:28:05.293Z,14.23
2022-10-28T02:30:41.284Z,13.13
2022-10-28T02:33:12.159Z,13.90
2022-10-28T02:35:45.427Z,10.38
2022-10-28T02:38:22.986Z,8.48
2022-10-28T02:40:54.517Z,10.35
2022-10-28T02:43:24.869Z,16.65
2022-10-28T02:45:57.155Z,10.40
2022-10-28T02:48:44.378Z,10.63
2022-10-28T02:51:18.773Z,10.38
2022-10-28T02:53:59.065Z,11.25
2022-10-28T02:56:27.698Z,16.88
2022-10-28T02:58:54.210Z,8.32
2022-10-28T03:01:20.640Z,8.73
2022-10-28T03:03:47.243Z,7.93
2022-10-28T03:06:14.135Z,9.52
2022-10-28T03:08:40.730Z,9.57
2022-10-28T03:11:07.067Z,10.10
2022-10-28T03:13:33.541Z,8.65
2022-10-28T03:15:59.889Z,11.30
2022-10-28T03:18:26.363Z,11.68
2022-10-28T03:20:55.455Z,10.30
2022-10-28T03:23:24.582Z,8.93
2022-10-28T03:25:51.004Z,9.88
2022-10-28T03:28:17.433Z,6.78
2022-10-28T03:30:43.795Z,12.48
2022-10-28T03:33:10.162Z,13.32
2022-10-28T03:35:36.638Z,12.43
2022-10-28T03:38:03.014Z,9.18
2022-10-28T03:40:29.603Z,7.72
2022-10-28T03:42:56.367Z,7.28
2022-10-28T03:45:22.906Z,8.02
2022-10-28T03:47:49.415Z,8.60
2022-10-28T03:50:16.980Z,11.23
2022-10-28T03:52:44.441Z,12.35
2022-10-28T03:55:11.048Z,7.70
2022-10-28T03:57:37.458Z,11.95
2022-10-28T04:00:05.601Z,11.75
2022-10-28T04:02:38.142Z,8.00
2022-10-28T04:05:04.938Z,11.88
2022-10-28T04:07:31.369Z,8.52
2022-10-28T04:09:57.884Z,12.10
2022-10-28T04:12:24.332Z,14.40
2022-10-28T04:14:50.735Z,10.93
2022-10-28T04:17:17.071Z,8.55
2022-10-28T04:19:43.518Z,13.30
2022-10-28T04:22:09.885Z,10.85
2022-10-28T04:24:36.488Z,8.77
2022-10-28T04:27:02.884Z,9.35
2022-10-28T04:29:29.439Z,12.23
2022-10-28T04:31:55.758Z,12.73
2022-10-28T04:34:22.412Z,10.02
2022-10-28T04:36:48.734Z,16.05
2022-10-28T04:39:15.243Z,14.05
2022-10-28T04:41:41.715Z,10.20
2022-10-28T04:44:08.051Z,10.07
2022-10-28T04:46:34.567Z,10.55
2022-10-28T04:49:00.976Z,8.60
2022-10-28T04:51:28.640Z,12.55
2022-10-28T04:53:54.994Z,11.75
2022-10-28T04:56:21.431Z,10.23
2022-10-28T04:58:48.296Z,13.60
2022-10-28T05:01:14.895Z,11.15
2022-10-28T05:03:41.446Z,8.20
2022-10-28T05:06:07.880Z,9.40
2022-10-28T05:08:34.333Z,11.00
2022-10-28T05:11:00.671Z,13.65
2022-10-28T05:13:27.500Z,9.57
2022-10-28T05:15:53.969Z,11.93
2022-10-28T05:18:20.367Z,8.52
2022-10-28T05:20:46.821Z,13.63
2022-10-28T05:23:13.255Z,13.25
2022-10-28T05:25:40.218Z,14.85
2022-10-28T05:28:06.724Z,12.45
2022-10-28T05:30:33.259Z,10.95
2022-10-28T05:33:02.975Z,12.15
2022-10-28T05:35:30.779Z,16.45
2022-10-28T05:37:57.569Z,8.63
2022-10-28T05:40:24.424Z,16.35
2022-10-28T05:42:51.186Z,12.20
2022-10-28T05:45:18.109Z,9.73
2022-10-28T05:47:46.122Z,9.70
2022-10-28T05:50:14.166Z,10.77
2022-10-28T05:52:44.731Z,11.20
2022-10-28T05:55:11.327Z,14.00
2022-10-28T05:57:37.674Z,15.88
2022-10-28T06:00:05.147Z,13.48
2022-10-28T06:02:39.163Z,9.57
2022-10-28T06:05:05.757Z,9.93
2022-10-28T06:07:32.436Z,9.18
2022-10-28T06:09:58.927Z,11.77
2022-10-28T06:12:23.918Z,10.80
2022-10-28T06:14:50.477Z,10.82
2022-10-28T06:17:16.819Z,15.15
2022-10-28T06:19:43.264Z,14.02
2022-10-28T06:22:10.281Z,11.23
2022-10-28T06:24:36.658Z,12.73
2022-10-28T06:27:03.086Z,15.02
2022-10-28T06:29:30.615Z,9.45
2022-10-28T06:31:57.007Z,12.88
2022-10-28T06:34:23.453Z,19.75
2022-10-28T06:36:49.878Z,11.82
2022-10-28T06:39:16.381Z,13.48
2022-10-28T06:41:42.983Z,12.70
2022-10-28T06:44:09.502Z,14.75
2022-10-28T06:46:37.441Z,11.13
2022-10-28T06:49:04.614Z,12.60
2022-10-28T06:51:32.415Z,11.23
2022-10-28T06:53:59.094Z,12.13
2022-10-28T06:56:25.734Z,12.10
2022-10-28T06:58:53.599Z,16.05
2022-10-28T07:01:20.837Z,12.18
2022-10-28T07:03:47.996Z,11.35
2022-10-28T07:06:15.829Z,10.73
2022-10-28T07:08:42.289Z,9.20
2022-10-28T07:11:09.031Z,13.23
2022-10-28T07:13:35.466Z,10.20
2022-10-28T07:16:02.089Z,17.85
2022-10-28T07:18:29.965Z,14.13
2022-10-28T07:21:00.865Z,13.70
2022-10-28T07:23:28.270Z,15.23
2022-10-28T07:25:56.143Z,14.63
2022-10-28T07:28:23.973Z,12.10
2022-10-28T07:30:50.538Z,14.77
2022-10-28T07:33:16.982Z,17.10
2022-10-28T07:35:44.204Z,16.17
2022-10-28T07:38:11.456Z,16.38
2022-10-28T07:40:38.147Z,22.30
2022-10-28T07:43:04.568Z,13.52
2022-10-28T07:45:31.142Z,14.43
2022-10-28T07:47:57.536Z,18.30
2022-10-28T07:50:24.066Z,15.05
2022-10-28T07:52:50.779Z,15.77
2022-10-28T07:55:17.476Z,13.98
2022-10-28T07:57:43.905Z,19.52
2022-10-28T08:00:10.939Z,16.70
2022-10-28T08:02:37.791Z,12.48
2022-10-28T08:05:04.673Z,19.45
2022-10-28T08:07:34.784Z,20.05
2022-10-28T08:10:04.998Z,16.23
2022-10-28T08:12:31.483Z,11.20
2022-10-28T08:14:57.970Z,13.68
2022-10-28T08:17:24.334Z,13.63
2022-10-28T08:19:50.849Z,19.00
2022-10-28T08:22:17.347Z,12.38
2022-10-28T08:24:43.832Z,14.43
2022-10-28T08:27:10.257Z,18.73
2022-10-28T08:29:36.885Z,19.20
2022-10-28T08:32:03.440Z,14.27
2022-10-28T08:34:31.161Z,23.88
2022-10-28T08:36:57.981Z,13.38
2022-10-28T08:39:28.918Z,13.60
2022-10-28T08:42:07.923Z,9.90
2022-10-28T08:44:53.707Z,15.35
2022-10-28T08:50:50.258Z,13.05
2022-10-28T08:53:21.406Z,17.83
2022-10-28T08:55:50.712Z,15.18
2022-10-28T08:58:25.118Z,19.35
2022-10-28T09:00:54.272Z,13.10
2022-10-28T09:03:33.267Z,12.82
2022-10-28T09:06:07.789Z,14.98
2022-10-28T09:08:46.689Z,15.30
2022-10-28T09:11:21.271Z,19.67
2022-10-28T09:14:31.689Z,19.88
2022-10-28T09:17:10.315Z,14.63
2022-10-28T09:19:45.156Z,13.73
2022-10-28T09:22:20.754Z,13.73
2022-10-28T09:25:02.273Z,18.98
2022-10-28T09:27:31.852Z,16.73
2022-10-28T09:30:18.411Z,21.52
2022-10-28T09:33:04.507Z,12.63
2022-10-28T09:35:36.589Z,14.98
2022-10-28T09:38:21.069Z,18.95
2022-10-28T09:40:55.597Z,17.33
2022-10-28T09:43:31.997Z,12.60
2022-10-28T09:46:03.874Z,13.27
2022-10-28T09:48:37.092Z,21.90
2022-10-28T09:51:04.049Z,12.77
2022-10-28T09:54:00.326Z,15.27
2022-10-28T09:56:28.862Z,18.05
2022-10-28T09:59:00.678Z,11.13
2022-10-28T10:01:41.547Z,19.33
2022-10-28T10:04:22.143Z,12.45
2022-10-28T10:07:11.448Z,11.25
2022-10-28T10:09:39.305Z,14.77
2022-10-28T10:12:08.865Z,11.55
2022-10-28T10:14:53.692Z,17.17
2022-10-28T10:17:31.901Z,16.38
2022-10-28T10:20:04.715Z,12.75
2022-10-28T10:22:46.169Z,13.32
2022-10-28T10:25:18.618Z,11.30
2022-10-28T10:28:01.638Z,11.88
2022-10-28T10:30:48.822Z,9.88
2022-10-28T10:33:34.628Z,20.08
2022-10-28T10:36:23.712Z,11.75
2022-10-28T10:38:55.548Z,10.93
2022-10-28T10:41:44.748Z,12.77
2022-10-28T10:44:20.250Z,14.95
2022-10-28T10:46:48.335Z,16.23
2022-10-28T10:49:15.983Z,15.23
2022-10-28T10:52:01.077Z,12.10
2022-10-28T10:54:30.667Z,13.13
2022-10-28T10:57:22.227Z,14.13
2022-10-28T10:59:51.911Z,16.67
2022-10-28T11:02:34.561Z,16.13
2022-10-28T11:05:10.164Z,15.13
2022-10-28T11:07:40.650Z,17.70
2022-10-28T11:10:21.447Z,11.68
2022-10-28T11:12:53.262Z,14.00
2022-10-28T11:15:25.080Z,17.67
2022-10-28T11:18:17.139Z,15.15
2022-10-28T11:20:59.018Z,16.35
2022-10-28T11:23:44.285Z,19.33
2022-10-28T11:26:14.405Z,15.63
2022-10-28T11:28:58.041Z,17.40
2022-10-28T11:31:46.143Z,12.77
2022-10-28T11:34:15.298Z,13.00
2022-10-28T11:37:01.684Z,15.32
2022-10-28T11:39:41.979Z,12.68
2022-10-28T11:42:18.692Z,13.70
2022-10-28T11:44:47.180Z,11.35
2022-10-28T11:47:43.141Z,10.43
2022-10-28T11:50:26.714Z,15.88
2022-10-28T11:52:52.997Z,14.60
2022-10-28T11:55:38.069Z,12.82
2022-10-28T11:58:38.498Z,17.23
2022-10-28T12:01:17.801Z,12.68
2022-10-28T12:03:47.192Z,14.63
2022-10-28T12:06:29.705Z,19.63
2022-10-28T12:09:05.298Z,16.40
2022-10-28T12:12:05.655Z,15.98
2022-10-28T12:14:51.013Z,13.00
2022-10-28T12:17:40.139Z,16.75
2022-10-28T12:20:25.176Z,16.35
2022-10-28T12:22:55.545Z,15.65
2022-10-28T12:25:32.557Z,21.25
2022-10-28T12:28:04.364Z,17.75
2022-10-28T12:30:34.258Z,14.43
2022-10-28T12:33:07.240Z,21.73
2022-10-28T12:35:45.185Z,16.58
2022-10-28T12:38:32.378Z,11.90
2022-10-28T12:41:12.683Z,20.08
2022-10-28T12:43:45.185Z,15.75
2022-10-28T12:46:22.314Z,12.82
2022-10-28T12:48:55.046Z,18.98
2022-10-28T12:51:30.692Z,12.25
2022-10-28T12:54:12.079Z,13.50
2022-10-28T12:56:43.663Z,17.58
2022-10-28T12:59:24.484Z,15.70
2022-10-28T13:01:52.170Z,18.08
2022-10-28T13:04:19.325Z,13.25
2022-10-28T13:07:08.289Z,10.75
2022-10-28T13:10:09.834Z,15.02
2022-10-28T13:12:45.261Z,13.35
2022-10-28T13:15:32.904Z,17.23
2022-10-28T13:18:45.409Z,11.63
2022-10-28T13:21:20.222Z,14.13
2022-10-28T13:23:55.400Z,12.00
2022-10-28T13:26:36.746Z,14.00
2022-10-28T13:29:07.341Z,14.25
2022-10-28T13:31:45.966Z,14.82
2022-10-28T13:34:16.342Z,16.30
2022-10-28T13:36:46.812Z,17.23
2022-10-28T13:39:42.016Z,19.02
2022-10-28T13:42:23.334Z,15.60
2022-10-28T13:44:57.376Z,17.95
2022-10-28T13:47:25.765Z,16.88
2022-10-28T13:50:10.964Z,14.40
2022-10-28T13:52:45.794Z,17.38
2022-10-28T13:55:23.978Z,13.18
2022-10-28T13:57:58.082Z,15.15
2022-10-28T14:03:02.754Z,16.98
2022-10-28T14:05:32.143Z,16.58
2022-10-28T14:08:01.706Z,20.05
2022-10-28T14:10:33.930Z,19.80
2022-10-28T14:13:09.166Z,18.60
2022-10-28T14:15:38.760Z,19.38
2022-10-28T14:18:43.206Z,19.77
2022-10-28T14:21:01.825Z,16.85
2022-10-28T14:23:28.390Z,20.52
2022-10-28T14:25:55.322Z,20.30
2022-10-28T14:28:27.896Z,16.50
2022-10-28T14:31:12.721Z,22.48
2022-10-28T14:33:41.928Z,15.93
2022-10-28T14:36:17.478Z,22.15
2022-10-28T14:38:53.092Z,20.70
2022-10-28T14:42:01.296Z,23.35
2022-10-28T14:44:41.254Z,19.85
2022-10-28T14:47:35.620Z,17.05
2022-10-28T14:50:07.250Z,15.68
2022-10-28T14:52:36.667Z,15.43
2022-10-28T14:55:07.222Z,29.58
2022-10-28T14:57:34.631Z,15.98
2022-10-28T15:00:06.923Z,18.17
2022-10-28T15:02:37.823Z,14.73
2022-10-28T15:05:15.390Z,18.35
2022-10-28T15:07:42.306Z,14.50
2022-10-28T15:10:14.801Z,26.45
2022-10-28T15:12:44.794Z,17.33
2022-10-28T15:15:19.115Z,18.50
2022-10-28T15:17:45.622Z,15.15
2022-10-28T15:20:24.759Z,14.43
2022-10-28T15:22:53.100Z,16.80
2022-10-28T15:25:22.442Z,18.50
2022-10-28T15:27:52.544Z,20.73
2022-10-28T15:30:23.697Z,16.10
2022-10-28T15:32:52.281Z,18.90
2022-10-28T15:35:27.874Z,15.55
2022-10-28T15:37:55.182Z,19.27
2022-10-28T15:40:29.722Z,19.25
2022-10-28T15:43:04.147Z,18.73
2022-10-28T15:45:36.041Z,21.80
2022-10-28T15:48:21.510Z,22.15
2022-10-28T15:51:11.602Z,33.42
2022-10-28T15:53:41.778Z,22.33
2022-10-28T15:56:13.983Z,23.60
2022-10-28T15:58:45.825Z,22.98
2022-10-28T16:01:35.479Z,21.38
2022-10-28T16:04:02.073Z,25.08
2022-10-28T16:06:34.625Z,25.52
2022-10-28T16:09:12.424Z,21.00
2022-10-28T16:11:43.702Z,19.75
2022-10-28T16:14:54.922Z,20.27
2022-10-28T16:17:26.731Z,24.23
2022-10-28T16:20:15.335Z,24.70
2022-10-28T16:22:44.972Z,19.40
2022-10-28T16:25:14.231Z,25.73
2022-10-28T16:27:40.914Z,21.02
2022-10-28T16:30:08.019Z,24.13
2022-10-28T16:32:38.146Z,19.52
2022-10-28T16:35:12.977Z,18.58
2022-10-28T16:37:44.595Z,20.95
2022-10-28T16:40:37.832Z,17.52
2022-10-28T16:43:01.361Z,22.77
2022-10-28T16:45:27.956Z,18.60
2022-10-28T16:47:54.654Z,24.45
2022-10-28T16:50:21.339Z,23.95
2022-10-28T16:52:47.724Z,19.23
2022-10-28T16:55:16.549Z,25.15
2022-10-28T16:57:42.920Z,23.45
2022-10-28T17:00:13.175Z,16.48
2022-10-28T17:02:40.103Z,22.77
2022-10-28T17:05:16.999Z,20.17
2022-10-28T17:07:43.469Z,23.00
2022-10-28T17:10:11.120Z,29.02
2022-10-28T17:12:37.566Z,20.75
2022-10-28T17:15:04.408Z,24.55
2022-10-28T17:17:30.850Z,21.45
2022-10-28T17:19:57.311Z,25.10
2022-10-28T17:22:23.808Z,26.50
2022-10-28T17:24:50.248Z,21.42
2022-10-28T17:27:16.607Z,22.17
2022-10-28T17:29:43.290Z,28.40
2022-10-28T17:32:09.653Z,26.15
2022-10-28T17:34:36.348Z,20.80
2022-10-28T17:37:03.433Z,27.13
2022-10-28T17:39:30.075Z,23.85
2022-10-28T17:41:56.522Z,20.35
2022-10-28T17:44:23.061Z,18.17
2022-10-28T17:46:49.440Z,21.67
2022-10-28T17:49:15.970Z,28.60
2022-10-28T17:51:42.485Z,24.10
2022-10-28T17:54:08.913Z,23.85
2022-10-28T17:56:36.253Z,20.10
2022-10-28T17:59:04.169Z,21.45
2022-10-28T18:01:32.990Z,18.95
2022-10-28T18:03:59.860Z,21.30
2022-10-28T18:06:26.392Z,25.20
2022-10-28T18:08:53.008Z,17.63
2022-10-28T18:11:20.482Z,26.52
2022-10-28T18:13:49.898Z,20.10
2022-10-28T18:16:19.410Z,16.10
2022-10-28T18:18:45.936Z,18.65
2022-10-28T18:21:13.307Z,21.10
2022-10-28T18:23:41.067Z,18.00
2022-10-28T18:26:15.530Z,17.05
2022-10-28T18:28:43.804Z,28.00
2022-10-28T18:31:18.662Z,20.20
2022-10-28T18:33:46.409Z,36.33
2022-10-28T18:36:15.847Z,23.45
2022-10-28T18:38:42.440Z,26.20
2022-10-28T18:41:13.821Z,20.20
2022-10-28T18:43:40.870Z,24.73
2022-10-28T18:46:08.092Z,23.88
2022-10-28T18:48:35.168Z,23.17
2022-10-28T18:51:06.650Z,20.70
2022-10-28T18:53:38.394Z,19.80
2022-10-28T18:56:06.773Z,27.42
2022-10-28T18:58:33.765Z,21.92
2022-10-28T19:01:11.473Z,21.75
2022-10-28T19:03:38.554Z,24.42
2022-10-28T19:06:08.073Z,20.60
2022-10-28T19:08:38.573Z,18.40
2022-10-28T19:11:06.126Z,23.33
2022-10-28T19:13:35.025Z,25.63
2022-10-28T19:16:01.975Z,23.85
2022-10-28T19:18:28.616Z,18.52
2022-10-28T19:21:03.175Z,21.67
2022-10-28T19:23:31.367Z,23.83
2022-10-28T19:25:58.027Z,26.60
2022-10-28T19:28:24.823Z,22.13
2022-10-28T19:30:59.413Z,20.33
2022-10-28T19:33:27.333Z,23.33
2022-10-28T19:35:53.844Z,19.08
2022-10-28T19:38:20.286Z,25.73
2022-10-28T19:40:46.832Z,28.17
2022-10-28T19:43:13.220Z,24.02
2022-10-28T19:45:39.691Z,24.77
2022-10-28T19:48:06.283Z,21.80
2022-10-28T19:50:32.757Z,24.98
2022-10-28T19:52:59.150Z,26.60
2022-10-28T19:55:25.638Z,27.77
2022-10-28T19:57:53.014Z,30.65
2022-10-28T20:00:19.715Z,22.90
2022-10-28T20:02:47.255Z,17.23
2022-10-28T20:05:13.851Z,20.40
2022-10-28T20:07:40.234Z,23.63
2022-10-28T20:10:07.153Z,21.55
2022-10-28T20:12:33.666Z,24.25
2022-10-28T20:15:00.179Z,20.45
2022-10-28T20:17:26.568Z,18.73
2022-10-28T20:19:53.218Z,27.23
2022-10-28T20:22:19.584Z,19.90
2022-10-28T20:24:46.097Z,22.65
2022-10-28T20:27:12.452Z,28.77
2022-10-28T20:29:38.978Z,21.77
2022-10-28T20:32:05.338Z,26.10
2022-10-28T20:34:31.753Z,24.92
2022-10-28T20:36:58.287Z,30.25
2022-10-28T20:39:25.951Z,26.27
2022-10-28T20:41:52.478Z,22.88
2022-10-28T20:44:18.969Z,18.40
2022-10-28T20:46:47.660Z,17.10
2022-10-28T20:49:14.371Z,28.95
2022-10-28T20:51:41.388Z,25.73
2022-10-28T20:54:08.229Z,21.02
2022-10-28T20:56:37.625Z,22.90
2022-10-28T20:59:04.410Z,24.95
2022-10-28T21:01:33.546Z,22.55
2022-10-28T21:04:02.713Z,23.05
2022-10-28T21:06:29.623Z,21.98
2022-10-28T21:08:56.630Z,26.05
2022-10-28T21:11:24.014Z,26.90
2022-10-28T21:13:52.387Z,25.20
2022-10-28T21:16:20.275Z,27.98
2022-10-28T21:18:47.159Z,22.17
2022-10-28T21:21:13.633Z,21.45
2022-10-28T21:23:40.008Z,24.35
2022-10-28T21:26:08.046Z,23.40
2022-10-28T21:28:35.861Z,26.33
2022-10-28T21:31:13.970Z,27.63
2022-10-28T21:33:42.250Z,25.90
2022-10-28T21:36:20.517Z,29.55
2022-10-28T21:38:47.167Z,25.27
2022-10-28T21:41:19.421Z,26.50
2022-10-28T21:43:48.469Z,25.23
2022-10-28T21:46:16.295Z,26.50
2022-10-28T21:48:43.209Z,23.92
2022-10-28T21:51:14.484Z,20.90
2022-10-28T21:53:42.335Z,21.88
2022-10-28T21:56:18.837Z,27.73
2022-10-28T21:58:48.535Z,27.23
2022-10-28T22:01:20.904Z,25.75
2022-10-28T22:03:47.836Z,22.90
2022-10-28T22:06:14.569Z,28.00
2022-10-28T22:08:41.100Z,28.88
2022-10-28T22:11:19.534Z,25.65
2022-10-28T22:13:46.995Z,23.50
2022-10-28T22:16:17.801Z,27.00
2022-10-28T22:18:45.187Z,30.80
2022-10-28T22:21:18.895Z,26.73
2022-10-28T22:23:45.739Z,25.83
2022-10-28T22:26:18.778Z,26.20
2022-10-28T22:28:45.605Z,32.60
2022-10-28T22:31:14.975Z,24.83
2022-10-28T22:33:41.824Z,22.88
2022-10-28T22:36:11.160Z,27.75
2022-10-28T22:38:38.147Z,25.17
2022-10-28T22:41:07.409Z,32.28
2022-10-28T22:43:34.607Z,23.80
2022-10-28T22:46:06.510Z,26.52
2022-10-28T22:48:33.530Z,23.27
2022-10-28T22:51:00.726Z,19.70
2022-10-28T22:53:27.730Z,26.13
2022-10-28T22:55:54.868Z,26.15
2022-10-28T22:58:22.925Z,23.63
2022-10-28T23:00:52.283Z,26.88
2022-10-28T23:03:19.113Z,27.67
2022-10-28T23:05:45.550Z,31.67
2022-10-28T23:08:16.282Z,28.30
2022-10-28T23:10:42.735Z,24.60
2022-10-28T23:13:12.345Z,19.67
2022-10-28T23:15:39.015Z,30.73
2022-10-28T23:18:05.491Z,24.17
2022-10-28T23:20:31.925Z,28.00
2022-10-28T23:22:58.918Z,27.95
2022-10-28T23:25:25.420Z,29.20
2022-10-28T23:27:51.911Z,28.52
2022-10-28T23:30:18.454Z,22.20
2022-10-28T23:32:44.900Z,22.67
2022-10-28T23:35:11.426Z,27.92
2022-10-28T23:37:37.774Z,22.75
2022-10-28T23:40:04.862Z,23.80
2022-10-28T23:42:31.441Z,23.48
2022-10-28T23:44:57.783Z,23.50
2022-10-28T23:47:24.297Z,22.58
2022-10-28T23:49:50.760Z,25.45
2022-10-28T23:52:17.103Z,26.70
2022-10-28T23:54:43.503Z,26.20
2022-10-28T23:57:09.986Z,21.67
2022-10-28T23:59:36.512Z,24.88
